createdAt,value
2022-12-19T00:04:25.390Z,-4.7
2022-12-19T00:09:31.519Z,-4.7
2022-12-19T00:14:37.651Z,-4.7
2022-12-19T00:19:43.788Z,-4.8
2022-12-19T00:24:49.914Z,-4.7
2022-12-19T00:29:56.028Z,-4.6
2022-12-19T00:35:02.151Z,-4.6
2022-12-19T00:40:08.346Z,-4.6
2022-12-19T00:45:14.409Z,-4.6
2022-12-19T00:50:20.546Z,-4.5
2022-12-19T00:55:26.666Z,-4.5
2022-12-19T01:00:32.816Z,-4.5
2022-12-19T01:05:38.930Z,-4.5
2022-12-19T01:10:45.067Z,-4.5
2022-12-19T01:15:51.292Z,-4.4
2022-12-19T01:20:57.330Z,-4.4
2022-12-19T01:26:03.478Z,-4.4
2022-12-19T01:31:09.598Z,-4.4
2022-12-19T01:36:15.695Z,-4.4
2022-12-19T01:41:21.841Z,-4.3
2022-12-19T01:46:27.966Z,-4.2
2022-12-19T01:51:34.090Z,-4.3
2022-12-19T01:56:40.180Z,-4.2
2022-12-19T02:01:46.309Z,-4.2
2022-12-19T02:06:52.433Z,-4.2
2022-12-19T02:11:58.577Z,-4.1
2022-12-19T02:17:04.695Z,-4.1
2022-12-19T02:22:10.841Z,-4.1
2022-12-19T02:27:16.972Z,-4
2022-12-19T02:32:23.087Z,-4
2022-12-19T02:37:29.235Z,-3.9
2022-12-19T02:42:35.381Z,-3.7
2022-12-19T02:47:41.521Z,-3.7
2022-12-19T02:52:47.625Z,-3.5
2022-12-19T02:57:53.746Z,-3.3
2022-12-19T03:02:59.890Z,-3.2
2022-12-19T03:08:06.022Z,-3.2
2022-12-19T03:13:12.156Z,-3.1
2022-12-19T03:18:18.297Z,-3.1
2022-12-19T03:23:24.431Z,-3
2022-12-19T03:28:30.562Z,-2.8
2022-12-19T03:33:36.700Z,-2.8
2022-12-19T03:38:42.814Z,-2.7
2022-12-19T03:43:48.949Z,-2.6
2022-12-19T03:48:55.091Z,-2.5
2022-12-19T03:54:01.192Z,-2.4
2022-12-19T03:59:07.333Z,-2.4
2022-12-19T04:04:13.453Z,-2.3
2022-12-19T04:09:19.597Z,-2.2
2022-12-19T04:14:25.725Z,-2.2
2022-12-19T04:19:31.843Z,-2.2
2022-12-19T04:24:37.974Z,-2.2
2022-12-19T04:29:44.100Z,-2.3
2022-12-19T04:34:50.229Z,-2.3
2022-12-19T04:39:56.356Z,-2.4
2022-12-19T04:45:02.474Z,-2.4
2022-12-19T04:50:08.613Z,-2.5
2022-12-19T04:55:14.732Z,-2.5
2022-12-19T05:00:20.858Z,-2.5
2022-12-19T05:05:26.995Z,-2.6
2022-12-19T05:10:33.177Z,-2.5
2022-12-19T05:15:39.247Z,-2.5
2022-12-19T05:20:45.403Z,-2.4
2022-12-19T05:25:51.509Z,-2.4
2022-12-19T05:30:57.627Z,-2.3
2022-12-19T05:36:03.761Z,-2.3
